createdAt,value
2023-02-22T00:01:51.109Z,100991.88
2023-02-22T00:04:21.288Z,100997.81
2023-02-22T00:06:49.688Z,100988.22
2023-02-22T00:09:21.489Z,101002.09
2023-02-22T00:11:48.970Z,100997.66
2023-02-22T00:14:15.924Z,100999.19
2023-02-22T00:16:42.549Z,100993.91
2023-02-22T00:19:13.676Z,100992.97
2023-02-22T00:21:40.376Z,100996.31
2023-02-22T00:24:23.122Z,100994.38
2023-02-22T00:26:51.762Z,100989.19
2023-02-22T00:29:18.606Z,100995.56
2023-02-22T00:31:46.445Z,100997.16
2023-02-22T00:34:13.986Z,100993.50
2023-02-22T00:36:47.832Z,100992.09
2023-02-22T00:39:14.647Z,100986.81
2023-02-22T00:41:41.804Z,100982.50
2023-02-22T00:44:08.605Z,100994.81
2023-02-22T00:46:35.248Z,100995.50
2023-02-22T00:49:03.404Z,100989.34
2023-02-22T00:51:30.023Z,100991.97
2023-02-22T00:53:56.821Z,100997.91
2023-02-22T00:56:26.969Z,100996.75
2023-02-22T00:58:54.249Z,100991.06
2023-02-22T01:01:20.884Z,100988.88
2023-02-22T01:03:47.988Z,100991.38
2023-02-22T01:06:14.627Z,100993.13
2023-02-22T01:08:45.033Z,100993.78
2023-02-22T01:11:11.926Z,100985.75
2023-02-22T01:13:38.612Z,100997.19
2023-02-22T01:16:08.316Z,100994.19
2023-02-22T01:18:35.866Z,100991.53
2023-02-22T01:21:03.990Z,100994.03
2023-02-22T01:23:30.928Z,100992.91
2023-02-22T01:25:58.044Z,100986.56
2023-02-22T01:28:24.688Z,100983.44
2023-02-22T01:30:51.776Z,100990.16
2023-02-22T01:33:18.445Z,100991.72
2023-02-22T01:35:46.253Z,100988.56
2023-02-22T01:38:14.193Z,100990.50
2023-02-22T01:40:42.969Z,100983.44
2023-02-22T01:43:21.689Z,100987.34
2023-02-22T01:45:50.010Z,100989.97
2023-02-22T01:48:28.381Z,100994.97
2023-02-22T01:51:13.593Z,100991.16
2023-02-22T01:53:46.006Z,100988.44
2023-02-22T01:56:13.190Z,100988.06
2023-02-22T01:58:42.587Z,100995.53
2023-02-22T02:01:09.576Z,100989.50
2023-02-22T02:03:38.582Z,100988.66
2023-02-22T02:06:11.841Z,100991.22
2023-02-22T02:08:49.924Z,100982.22
2023-02-22T02:11:19.831Z,100980.31
2023-02-22T02:13:47.445Z,100986.50
2023-02-22T02:16:14.705Z,100975.03
2023-02-22T02:18:41.339Z,100980.88
2023-02-22T02:21:29.526Z,100974.81
2023-02-22T02:24:21.154Z,100987.00
2023-02-22T02:27:09.169Z,100983.66
2023-02-22T02:30:13.644Z,100989.16
2023-02-22T02:33:06.159Z,100982.66
2023-02-22T02:35:43.588Z,100979.03
2023-02-22T02:38:26.727Z,100976.34
2023-02-22T02:41:07.674Z,100984.34
2023-02-22T02:43:47.360Z,100983.41
2023-02-22T02:46:23.033Z,100983.31
2023-02-22T02:48:56.851Z,100975.38
2023-02-22T02:51:28.274Z,100969.91
2023-02-22T02:53:56.124Z,100982.78
2023-02-22T02:56:23.552Z,100973.13
2023-02-22T02:58:52.893Z,100975.69
2023-02-22T03:01:33.433Z,100974.50
2023-02-22T03:04:10.171Z,100970.94
2023-02-22T03:07:03.591Z,100967.84
2023-02-22T03:09:38.376Z,100971.00
2023-02-22T03:12:16.918Z,100965.19
2023-02-22T03:15:06.524Z,100973.78
2023-02-22T03:17:41.420Z,100962.25
2023-02-22T03:20:46.269Z,100977.81
2023-02-22T03:23:24.882Z,100976.25
2023-02-22T03:25:56.592Z,100968.53
2023-02-22T03:28:29.040Z,100964.69
2023-02-22T03:31:02.032Z,100960.22
2023-02-22T03:33:37.849Z,100963.25
2023-02-22T03:36:16.159Z,100958.75
2023-02-22T03:38:44.649Z,100972.56
2023-02-22T03:41:12.009Z,100967.78
2023-02-22T03:43:44.721Z,100975.25
2023-02-22T03:46:12.600Z,100975.81
2023-02-22T03:49:03.634Z,100965.38
2023-02-22T03:51:30.656Z,100974.06
2023-02-22T03:53:58.064Z,100968.28
2023-02-22T03:56:35.848Z,100963.03
2023-02-22T03:59:07.736Z,100971.38
2023-02-22T04:01:34.811Z,100969.50
2023-02-22T04:04:01.570Z,100977.72
2023-02-22T04:06:28.970Z,100975.38
2023-02-22T04:08:56.186Z,100972.81
2023-02-22T04:11:25.478Z,100980.34
2023-02-22T04:13:54.824Z,100986.38
2023-02-22T04:16:22.931Z,100990.81
2023-02-22T04:18:49.623Z,100987.34
2023-02-22T04:21:16.487Z,100989.88
2023-02-22T04:23:43.288Z,100987.50
2023-02-22T04:26:10.084Z,100990.88
2023-02-22T04:28:36.668Z,100996.16
2023-02-22T04:31:04.714Z,100993.19
2023-02-22T04:33:33.470Z,100990.47
2023-02-22T04:36:00.151Z,100993.84
2023-02-22T04:38:27.092Z,100999.03
2023-02-22T04:40:56.898Z,100988.78
2023-02-22T04:43:23.594Z,100992.97
2023-02-22T04:45:50.864Z,100997.16
2023-02-22T04:48:17.457Z,100985.91
2023-02-22T04:50:44.118Z,100988.44
2023-02-22T04:53:10.846Z,100986.97
2023-02-22T04:55:37.509Z,100974.75
2023-02-22T04:58:04.220Z,100982.31
2023-02-22T05:00:30.903Z,100983.22
2023-02-22T05:02:57.792Z,100981.69
2023-02-22T05:05:25.268Z,100981.75
2023-02-22T05:07:52.589Z,100988.16
2023-02-22T05:10:19.691Z,100985.13
2023-02-22T05:12:46.393Z,100981.09
2023-02-22T05:15:18.487Z,100976.34
2023-02-22T05:17:45.263Z,100973.97
2023-02-22T05:20:24.123Z,100976.66
2023-02-22T05:22:52.004Z,100974.75
2023-02-22T05:25:20.489Z,100981.44
2023-02-22T05:27:55.259Z,100980.88
2023-02-22T05:30:31.238Z,100985.78
2023-02-22T05:32:59.327Z,100984.91
2023-02-22T05:35:27.142Z,100985.84
2023-02-22T05:37:53.782Z,100986.09
2023-02-22T05:40:23.105Z,100979.88
2023-02-22T05:42:50.771Z,100983.25
2023-02-22T05:45:19.620Z,100977.44
2023-02-22T05:47:46.611Z,100976.38
2023-02-22T05:50:14.546Z,100976.91
2023-02-22T05:52:41.331Z,100971.56
2023-02-22T05:55:09.036Z,100974.84
2023-02-22T05:57:35.846Z,100973.91
2023-02-22T06:00:10.067Z,100984.16
2023-02-22T06:02:36.837Z,100976.66
2023-02-22T06:05:03.467Z,100980.66
2023-02-22T06:07:30.076Z,100984.28
2023-02-22T06:09:56.705Z,100986.44
2023-02-22T06:12:23.350Z,100991.16
2023-02-22T06:14:50.003Z,100999.59
2023-02-22T06:17:18.033Z,100997.88
2023-02-22T06:19:45.528Z,101002.13
2023-02-22T06:22:18.098Z,100996.16
2023-02-22T06:24:44.824Z,101005.00
2023-02-22T06:27:11.439Z,101003.34
2023-02-22T06:29:38.349Z,100994.06
2023-02-22T06:32:05.265Z,101009.38
2023-02-22T06:34:32.317Z,101008.41
2023-02-22T06:37:00.064Z,101013.59
2023-02-22T06:39:26.737Z,101011.00
2023-02-22T06:41:55.306Z,101013.59
2023-02-22T06:44:21.928Z,101019.66
2023-02-22T06:46:51.162Z,101021.81
2023-02-22T06:49:19.719Z,101021.97
2023-02-22T06:51:46.775Z,101029.50
2023-02-22T06:54:13.873Z,101026.91
2023-02-22T06:56:40.573Z,101024.41
2023-02-22T06:59:08.470Z,101025.34
2023-02-22T07:01:35.365Z,101026.34
2023-02-22T07:04:01.982Z,101014.34
2023-02-22T07:06:28.715Z,101031.81
2023-02-22T07:08:55.328Z,101030.22
2023-02-22T07:11:21.969Z,101024.56
2023-02-22T07:13:48.657Z,101026.59
2023-02-22T07:16:15.369Z,101026.88
2023-02-22T07:18:41.998Z,101033.38
2023-02-22T07:21:08.650Z,101033.88
2023-02-22T07:23:35.267Z,101029.25
2023-02-22T07:26:02.686Z,101040.09
2023-02-22T07:28:29.449Z,101033.63
2023-02-22T07:30:56.037Z,101039.06
2023-02-22T07:33:22.665Z,101040.91
2023-02-22T07:35:50.877Z,101045.47
2023-02-22T07:38:18.915Z,101037.84
2023-02-22T07:40:45.764Z,101041.16
2023-02-22T07:43:25.879Z,101040.03
2023-02-22T07:45:54.136Z,101045.28
2023-02-22T07:48:22.696Z,101035.78
2023-02-22T07:50:49.595Z,101034.44
2023-02-22T07:53:30.803Z,101035.38
2023-02-22T07:56:02.341Z,101025.44
2023-02-22T07:58:30.660Z,101029.41
2023-02-22T08:00:57.739Z,101030.69
2023-02-22T08:03:26.062Z,101024.84
2023-02-22T08:05:54.941Z,101024.47
2023-02-22T08:08:22.093Z,101028.09
2023-02-22T08:10:50.061Z,101023.06
2023-02-22T08:13:17.480Z,101027.00
2023-02-22T08:15:44.498Z,101035.25
2023-02-22T08:18:14.082Z,101039.81
2023-02-22T08:20:42.609Z,101037.50
2023-02-22T08:23:10.215Z,101037.91
2023-02-22T08:25:37.388Z,101034.72
2023-02-22T08:28:09.559Z,101038.53
2023-02-22T08:30:40.043Z,101027.50
2023-02-22T08:33:07.219Z,101032.97
2023-02-22T08:35:34.228Z,101039.38
2023-02-22T08:38:03.615Z,101032.75
2023-02-22T08:40:32.677Z,101018.25
2023-02-22T08:42:59.341Z,101028.09
2023-02-22T08:45:26.040Z,101025.75
2023-02-22T08:47:52.653Z,101015.59
2023-02-22T08:50:25.111Z,101024.56
2023-02-22T08:52:53.893Z,101026.50
2023-02-22T08:55:21.962Z,101029.34
2023-02-22T08:57:48.577Z,101027.81
2023-02-22T09:00:15.866Z,101024.47
2023-02-22T09:02:42.447Z,101023.75
2023-02-22T09:05:09.275Z,101020.47
2023-02-22T09:07:35.903Z,101027.50
2023-02-22T09:10:02.512Z,101029.41
2023-02-22T09:12:29.201Z,101026.91
2023-02-22T09:14:55.789Z,101025.31
2023-02-22T09:17:22.393Z,101021.97
2023-02-22T09:19:48.982Z,101025.53
2023-02-22T09:22:15.629Z,101031.78
2023-02-22T09:24:43.388Z,101026.66
2023-02-22T09:27:12.176Z,101029.50
2023-02-22T09:29:39.511Z,101027.09
2023-02-22T09:32:06.351Z,101024.53
2023-02-22T09:34:35.319Z,101031.59
2023-02-22T09:37:02.014Z,101026.47
2023-02-22T09:39:29.218Z,101023.84
2023-02-22T09:42:24.042Z,101022.22
2023-02-22T09:44:59.743Z,101021.41
2023-02-22T09:48:08.200Z,101022.38
2023-02-22T09:50:44.814Z,101019.00
2023-02-22T09:53:29.455Z,101007.66
2023-02-22T09:56:00.527Z,101012.94
2023-02-22T09:58:42.943Z,101009.47
2023-02-22T10:01:28.432Z,101005.97
2023-02-22T10:04:12.372Z,101007.72
2023-02-22T10:06:39.840Z,101005.09
2023-02-22T10:09:07.912Z,100999.84
2023-02-22T10:11:34.479Z,100999.84
2023-02-22T10:14:05.949Z,100992.81
2023-02-22T10:16:43.577Z,100998.91
2023-02-22T10:19:17.452Z,100992.78
2023-02-22T10:22:07.737Z,100993.66
2023-02-22T10:24:57.138Z,100992.75
2023-02-22T10:27:39.917Z,100992.72
2023-02-22T10:30:27.869Z,100986.59
2023-02-22T10:33:05.275Z,100996.22
2023-02-22T10:35:37.128Z,100994.44
2023-02-22T10:38:16.584Z,100986.50
2023-02-22T10:40:54.747Z,100987.41
2023-02-22T10:43:21.706Z,100990.88
2023-02-22T10:45:48.399Z,100985.59
2023-02-22T10:48:18.526Z,100985.56
2023-02-22T10:50:46.267Z,100988.16
2023-02-22T10:53:15.370Z,100981.19
2023-02-22T10:56:09.942Z,100976.72
2023-02-22T10:58:57.680Z,100977.59
2023-02-22T11:01:33.386Z,100969.63
2023-02-22T11:04:11.033Z,100976.59
2023-02-22T11:06:38.038Z,100978.41
2023-02-22T11:09:12.369Z,100969.59
2023-02-22T11:11:44.301Z,100976.59
2023-02-22T11:14:12.561Z,100963.38
2023-02-22T11:16:51.500Z,100969.44
2023-02-22T11:19:26.578Z,100969.44
2023-02-22T11:21:56.688Z,100970.38
2023-02-22T11:24:24.861Z,100971.16
2023-02-22T11:26:56.811Z,100967.69
2023-02-22T11:29:33.560Z,100973.78
2023-02-22T11:32:13.546Z,100969.38
2023-02-22T11:34:42.761Z,100956.34
2023-02-22T11:37:18.348Z,100956.34
2023-02-22T11:39:45.596Z,100955.44
2023-02-22T11:42:27.280Z,100945.69
2023-02-22T11:45:21.479Z,100944.78
2023-02-22T11:47:52.634Z,100942.13
2023-02-22T11:50:28.199Z,100937.72
2023-02-22T11:53:05.424Z,100936.78
2023-02-22T11:55:43.134Z,100930.78
2023-02-22T11:58:40.944Z,100934.28
2023-02-22T12:01:31.695Z,100930.81
2023-02-22T12:04:23.084Z,100931.63
2023-02-22T12:07:17.929Z,100931.63
2023-02-22T12:09:51.792Z,100928.09
2023-02-22T12:12:32.689Z,100928.03
2023-02-22T12:15:13.941Z,100929.75
2023-02-22T12:18:00.040Z,100927.94
2023-02-22T12:20:39.589Z,100922.63
2023-02-22T12:23:12.884Z,100930.53
2023-02-22T12:25:42.665Z,100931.47
2023-02-22T12:28:25.047Z,100927.91
2023-02-22T12:31:06.204Z,100927.88
2023-02-22T12:33:46.368Z,100920.84
2023-02-22T12:36:16.396Z,100918.41
2023-02-22T12:38:44.609Z,100916.59
2023-02-22T12:41:33.344Z,100919.13
2023-02-22T12:44:05.238Z,100914.91
2023-02-22T12:46:44.418Z,100919.19
2023-02-22T12:49:33.479Z,100912.06
2023-02-22T12:52:15.920Z,100912.81
2023-02-22T12:54:56.461Z,100911.16
2023-02-22T12:58:01.285Z,100917.97
2023-02-22T13:00:37.960Z,100917.31
2023-02-22T13:03:36.628Z,100910.19
2023-02-22T13:06:28.038Z,100915.47
2023-02-22T13:09:35.938Z,100907.50
2023-02-22T13:12:31.586Z,100908.31
2023-02-22T13:15:10.924Z,100907.47
2023-02-22T13:18:05.044Z,100894.19
2023-02-22T13:20:46.979Z,100898.66
2023-02-22T13:23:19.473Z,100901.28
2023-02-22T13:25:58.109Z,100888.13
2023-02-22T13:28:43.297Z,100893.47
2023-02-22T13:31:22.223Z,100887.31
2023-02-22T13:34:06.781Z,100894.25
2023-02-22T13:36:45.429Z,100890.97
2023-02-22T13:39:31.238Z,100898.81
2023-02-22T13:42:19.745Z,100903.09
2023-02-22T13:45:23.801Z,100899.53
2023-02-22T13:47:59.267Z,100892.63
2023-02-22T13:51:04.697Z,100895.25
2023-02-22T13:53:44.110Z,100887.34
2023-02-22T13:56:11.946Z,100892.75
2023-02-22T13:58:58.731Z,100888.47
2023-02-22T14:01:46.347Z,100888.44
2023-02-22T14:04:32.182Z,100885.56
2023-02-22T14:07:25.957Z,100885.50
2023-02-22T14:09:57.081Z,100887.31
2023-02-22T14:12:49.419Z,100877.56
2023-02-22T14:15:29.186Z,100877.66
2023-02-22T14:18:07.444Z,100888.19
2023-02-22T14:20:40.203Z,100881.06
2023-02-22T14:23:28.207Z,100871.50
2023-02-22T14:25:55.465Z,100875.91
2023-02-22T14:28:48.813Z,100867.34
2023-02-22T14:31:34.454Z,100872.66
2023-02-22T14:34:17.454Z,100873.34
2023-02-22T14:37:01.058Z,100863.81
2023-02-22T14:39:33.065Z,100855.78
2023-02-22T14:42:01.504Z,100863.00
2023-02-22T14:44:33.563Z,100863.81
2023-02-22T14:47:05.112Z,100861.34
2023-02-22T14:49:36.390Z,100863.06
2023-02-22T14:52:08.305Z,100862.25
2023-02-22T14:54:37.126Z,100863.88
2023-02-22T14:57:14.786Z,100864.91
2023-02-22T14:59:58.962Z,100859.66
2023-02-22T15:02:26.154Z,100865.09
2023-02-22T15:04:55.199Z,100859.81
2023-02-22T15:07:31.261Z,100858.84
2023-02-22T15:10:14.271Z,100858.88
2023-02-22T15:12:40.942Z,100853.59
2023-02-22T15:15:26.083Z,100857.19
2023-02-22T15:17:55.001Z,100856.38
2023-02-22T15:20:22.095Z,100854.66
2023-02-22T15:22:49.914Z,100857.28
2023-02-22T15:25:24.001Z,100853.84
2023-02-22T15:27:50.657Z,100853.88
2023-02-22T15:30:26.903Z,100849.47
2023-02-22T15:33:04.967Z,100857.38
2023-02-22T15:35:33.629Z,100848.72
2023-02-22T15:38:08.935Z,100849.63
2023-02-22T15:40:35.991Z,100844.31
2023-02-22T15:43:10.650Z,100846.94
2023-02-22T15:45:42.927Z,100846.94
2023-02-22T15:48:14.562Z,100850.47
2023-02-22T15:50:58.833Z,100852.25
2023-02-22T15:53:32.024Z,100850.59
2023-02-22T15:56:00.517Z,100843.47
2023-02-22T15:58:31.235Z,100841.03
2023-02-22T16:01:02.229Z,100842.75
2023-02-22T16:03:48.459Z,100839.31
2023-02-22T16:06:26.649Z,100833.97
2023-02-22T16:08:55.364Z,100843.69
2023-02-22T16:11:35.585Z,100831.44
2023-02-22T16:14:05.260Z,100837.59
2023-02-22T16:16:41.483Z,100833.22
2023-02-22T16:19:36.513Z,100834.09
2023-02-22T16:22:04.749Z,100838.50
2023-02-22T16:24:36.228Z,100839.41
2023-02-22T16:27:10.436Z,100833.34
2023-02-22T16:29:37.078Z,100828.91
2023-02-22T16:32:04.038Z,100836.78
2023-02-22T16:34:30.804Z,100833.38
2023-02-22T16:36:58.027Z,100835.97
2023-02-22T16:39:29.714Z,100831.56
2023-02-22T16:41:58.720Z,100835.06
2023-02-22T16:44:25.804Z,100834.25
2023-02-22T16:46:53.454Z,100835.16
2023-02-22T16:49:20.672Z,100828.19
2023-02-22T16:51:56.248Z,100834.31
2023-02-22T16:54:26.997Z,100829.13
2023-02-22T16:56:56.121Z,100824.75
2023-02-22T16:59:23.133Z,100830.88
2023-02-22T17:01:51.269Z,100829.16
2023-02-22T17:04:21.792Z,100826.50
2023-02-22T17:06:48.483Z,100837.03
2023-02-22T17:09:20.139Z,100830.03
2023-02-22T17:11:49.534Z,100827.38
2023-02-22T17:14:23.486Z,100829.19
2023-02-22T17:16:50.808Z,100826.56
2023-02-22T17:19:22.652Z,100827.47
2023-02-22T17:21:50.014Z,100828.31
2023-02-22T17:24:18.601Z,100824.84
2023-02-22T17:26:45.635Z,100825.72
2023-02-22T17:29:13.744Z,100826.59
2023-02-22T17:31:40.493Z,100824.84
2023-02-22T17:34:07.557Z,100825.69
2023-02-22T17:36:36.363Z,100821.34
2023-02-22T17:39:04.063Z,100823.09
2023-02-22T17:41:31.024Z,100830.97
2023-02-22T17:43:58.140Z,100823.09
2023-02-22T17:46:25.538Z,100826.59
2023-02-22T17:48:55.171Z,100827.47
2023-02-22T17:51:23.299Z,100830.09
2023-02-22T17:53:50.187Z,100824.84
2023-02-22T17:56:18.843Z,100827.47
2023-02-22T17:58:47.805Z,100829.22
2023-02-22T18:01:27.121Z,100824.84
2023-02-22T18:03:55.407Z,100830.09
2023-02-22T18:06:25.211Z,100828.34
2023-02-22T18:08:56.784Z,100829.22
2023-02-22T18:11:26.617Z,100828.34
2023-02-22T18:13:56.914Z,100823.09
2023-02-22T18:16:25.957Z,100827.44
2023-02-22T18:18:55.294Z,100833.59
2023-02-22T18:21:22.725Z,100828.28
2023-02-22T18:23:49.426Z,100827.47
2023-02-22T18:26:17.886Z,100824.84
2023-02-22T18:28:44.783Z,100824.00
2023-02-22T18:31:15.362Z,100829.22
2023-02-22T18:33:47.453Z,100819.63
2023-02-22T18:36:14.740Z,100825.69
2023-02-22T18:38:43.169Z,100816.94
2023-02-22T18:41:17.610Z,100826.53
2023-02-22T18:43:44.744Z,100829.13
2023-02-22T18:46:19.395Z,100821.31
2023-02-22T18:48:47.892Z,100831.78
2023-02-22T18:51:17.275Z,100823.91
2023-02-22T18:53:47.139Z,100830.91
2023-02-22T18:56:16.857Z,100832.66
2023-02-22T18:58:44.097Z,100830.91
2023-02-22T19:01:16.081Z,100827.41
2023-02-22T19:03:42.987Z,100827.44
2023-02-22T19:06:10.022Z,100829.16
2023-02-22T19:08:40.684Z,100835.34
2023-02-22T19:11:12.719Z,100823.94
2023-02-22T19:13:39.380Z,100832.72
2023-02-22T19:16:07.371Z,100828.28
2023-02-22T19:18:34.280Z,100821.31
2023-02-22T19:21:03.092Z,100823.91
2023-02-22T19:23:34.418Z,100824.81
2023-02-22T19:26:03.164Z,100825.66
2023-02-22T19:28:34.140Z,100830.03
2023-02-22T19:31:11.162Z,100836.16
2023-02-22T19:33:37.991Z,100835.28
2023-02-22T19:36:05.032Z,100835.25
2023-02-22T19:38:31.711Z,100831.75
2023-02-22T19:40:58.776Z,100836.97
2023-02-22T19:43:25.417Z,100836.06
2023-02-22T19:45:52.059Z,100836.09
2023-02-22T19:48:19.117Z,100836.91
2023-02-22T19:50:49.499Z,100835.16
2023-02-22T19:53:16.614Z,100843.88
2023-02-22T19:55:43.534Z,100837.75
2023-02-22T19:58:10.237Z,100834.28
2023-02-22T20:00:37.116Z,100836.00
2023-02-22T20:03:06.700Z,100840.31
2023-02-22T20:05:36.463Z,100835.09
2023-02-22T20:08:03.214Z,100834.16
2023-02-22T20:10:29.974Z,100839.41
2023-02-22T20:12:56.709Z,100834.19
2023-02-22T20:15:24.004Z,100830.66
2023-02-22T20:17:53.541Z,100832.44
2023-02-22T20:20:28.449Z,100832.38
2023-02-22T20:22:56.956Z,100832.31
2023-02-22T20:25:25.253Z,100838.47
2023-02-22T20:27:51.906Z,100835.84
2023-02-22T20:30:19.478Z,100826.25
2023-02-22T20:32:46.365Z,100826.25
2023-02-22T20:35:13.633Z,100825.38
2023-02-22T20:37:42.547Z,100831.44
2023-02-22T20:40:15.645Z,100834.00
2023-02-22T20:42:47.463Z,100829.63
2023-02-22T20:45:16.202Z,100834.00
2023-02-22T20:47:43.128Z,100831.38
2023-02-22T20:50:15.897Z,100826.19
2023-02-22T20:52:42.510Z,100827.00
2023-02-22T20:55:11.531Z,100812.97
2023-02-22T20:57:38.620Z,100830.44
2023-02-22T21:00:10.579Z,100822.56
2023-02-22T21:02:38.550Z,100833.03
2023-02-22T21:05:06.510Z,100827.78
2023-02-22T21:07:33.449Z,100825.09
2023-02-22T21:10:00.104Z,100823.38
2023-02-22T21:12:27.010Z,100831.16
2023-02-22T21:14:54.279Z,100838.09
2023-02-22T21:17:28.718Z,100835.50
2023-02-22T21:19:58.665Z,100845.09
2023-02-22T21:22:26.094Z,100835.44
2023-02-22T21:24:53.412Z,100834.56
2023-02-22T21:27:20.084Z,100838.06
2023-02-22T21:29:47.345Z,100838.00
2023-02-22T21:32:15.079Z,100831.00
2023-02-22T21:34:42.074Z,100824.03
2023-02-22T21:37:11.174Z,100835.34
2023-02-22T21:39:40.675Z,100832.63
2023-02-22T21:42:16.175Z,100823.13
2023-02-22T21:44:59.885Z,100822.19
2023-02-22T21:47:45.882Z,100823.84
2023-02-22T21:50:20.953Z,100820.41
2023-02-22T21:53:02.537Z,100821.31
2023-02-22T21:55:39.284Z,100810.78
2023-02-22T21:58:19.128Z,100805.50
2023-02-22T22:01:05.592Z,100813.25
2023-02-22T22:03:38.025Z,100793.22
2023-02-22T22:09:35.392Z,100803.66
2023-02-22T22:12:14.630Z,100807.13
2023-02-22T22:14:52.901Z,100812.31
2023-02-22T22:17:22.765Z,100801.81
2023-02-22T22:19:51.191Z,100805.41
2023-02-22T22:22:17.816Z,100802.78
2023-02-22T22:24:48.604Z,100806.19
2023-02-22T22:27:15.986Z,100796.53
2023-02-22T22:29:43.516Z,100796.59
2023-02-22T22:32:10.705Z,100807.78
2023-02-22T22:34:37.887Z,100801.66
2023-02-22T22:37:08.576Z,100793.84
2023-02-22T22:39:38.532Z,100796.53
2023-02-22T22:42:05.233Z,100793.03
2023-02-22T22:44:40.913Z,100789.41
2023-02-22T22:47:12.205Z,100788.53
2023-02-22T22:49:42.819Z,100790.34
2023-02-22T22:52:10.404Z,100785.03
2023-02-22T22:54:38.320Z,100792.06
2023-02-22T22:57:08.008Z,100788.59
2023-02-22T22:59:35.139Z,100782.41
2023-02-22T23:02:03.330Z,100784.19
2023-02-22T23:04:30.109Z,100788.59
2023-02-22T23:06:56.767Z,100784.25
2023-02-22T23:09:25.201Z,100781.63
2023-02-22T23:11:55.040Z,100787.75
2023-02-22T23:14:32.079Z,100788.63
2023-02-22T23:17:03.564Z,100785.06
2023-02-22T23:19:36.111Z,100779.13
2023-02-22T23:22:05.602Z,100779.03
2023-02-22T23:24:36.109Z,100779.91
2023-02-22T23:27:06.923Z,100771.28
2023-02-22T23:29:37.269Z,100770.41
2023-02-22T23:32:05.796Z,100771.81
2023-02-22T23:34:35.127Z,100760.75
2023-02-22T23:37:01.864Z,100767.72
2023-02-22T23:39:30.619Z,100775.44
2023-02-22T23:42:01.676Z,100772.84
2023-02-22T23:44:28.879Z,100765.03
2023-02-22T23:46:58.357Z,100762.41
2023-02-22T23:49:36.044Z,100774.44
2023-02-22T23:52:06.766Z,100762.28
2023-02-22T23:54:36.555Z,100756.94
2023-02-22T23:57:04.601Z,100758.81
2023-02-22T23:59:32.401Z,100756.81
